G. Unger Vetlesen — JXQR — position and weather

sailwx.info

Track history (hours):
 
Tides and Currents Weather Stations Pressure Air Temp Water Temp Dewpoint Dewpoint Depression Visibility Wind Speed Wind Dir Waves Ship Positions

G. Unger Vetlesen

Last reported at 2018-Jan-11 12:58 UTC. Time now 2018-Feb-21 17:28 UTC.
Position N 59°42' E 005°24'.
Warning: this ship's position is 41 days out of date.

Length 23 m; draft 3.2 m.

Type: Pleasure craft. MMSI: 257267500.

Date/timePositionNaut miles runAvg speedWind from/ knotsBaromVisibWave heightAir tempDewpointWater temp
2018-Jan-11 12:58N 59°42' E 005°24'4 8.5
2018-Jan-11 12:30N 59°45' E 005°21'  
2018-Jan-06 03:45N 62°28' E 006°04'2 9.0
2018-Jan-06 03:30N 62°29' E 006°08'4 8.6
2018-Jan-06 03:00N 62°34' E 006°11'41 8.2
2018-Jan-05 22:03N 63°02' E 007°13'1 9.1
2018-Jan-05 21:56N 63°03' E 007°15'4 7.9
2018-Jan-05 21:28N 63°04' E 007°23'4 9.0
2018-Jan-05 20:59N 63°06' E 007°31'4 8.5
2018-Jan-05 20:30N 63°07' E 007°40'3 4.8
2018-Jan-05 19:58N 63°07' E 007°45'0 0.0
2018-Jan-05 19:28N 63°07' E 007°45'0 0.0
2018-Jan-05 18:59N 63°07' E 007°45'0 0.0
2018-Jan-05 18:29N 63°07' E 007°45'0 0.0
2018-Jan-05 17:59N 63°07' E 007°45'0 0.0
2018-Jan-05 17:30N 63°07' E 007°45'0 0.0
2018-Jan-05 17:00N 63°07' E 007°45'0 0.0
2018-Jan-05 16:30N 63°07' E 007°45'0 0.0
2018-Jan-05 15:58N 63°07' E 007°45'0 0.0
2018-Jan-05 15:28N 63°07' E 007°45'0 0.0
2018-Jan-05 14:58N 63°07' E 007°45'0 0.0
2018-Jan-05 14:29N 63°07' E 007°45'0 0.0
2018-Jan-05 13:59N 63°07' E 007°45'0 0.0
2018-Jan-05 13:29N 63°07' E 007°45'0 0.0
2018-Jan-05 13:00N 63°07' E 007°45'0 0.0
2018-Jan-05 12:30N 63°07' E 007°45'0 0.0
2018-Jan-05 12:00N 63°07' E 007°45'0 0.0
2018-Jan-05 11:28N 63°07' E 007°45'0 0.0
2018-Jan-05 10:58N 63°07' E 007°45'0 0.0
2018-Jan-05 10:28N 63°07' E 007°45'0 0.0
2018-Jan-05 09:59N 63°07' E 007°45'0 0.0
2018-Jan-05 09:29N 63°07' E 007°45'0 0.0
2018-Jan-05 08:59N 63°07' E 007°45'0 0.0
2018-Jan-05 08:30N 63°07' E 007°45'0 0.0
2018-Jan-05 08:00N 63°07' E 007°45'0 0.0
2018-Jan-05 07:30N 63°07' E 007°45'0 0.0
2018-Jan-05 06:58N 63°07' E 007°45'0 0.0
2018-Jan-05 06:28N 63°07' E 007°45'0 0.0
2018-Jan-05 05:58N 63°07' E 007°45'0 0.0
2018-Jan-05 05:29N 63°07' E 007°45'0 0.0
2018-Jan-05 04:59N 63°07' E 007°45'0 0.0
2018-Jan-05 04:29N 63°07' E 007°45'0 0.0
2018-Jan-05 04:00N 63°07' E 007°45'0 0.0
2018-Jan-05 03:30N 63°07' E 007°45'0 0.0
2018-Jan-05 03:00N 63°07' E 007°45'0 0.0
2018-Jan-05 02:28N 63°07' E 007°45'0 0.0
2018-Jan-05 01:58N 63°07' E 007°45'0 0.0
2018-Jan-05 01:28N 63°07' E 007°45'0 0.0
2018-Jan-05 00:59N 63°07' E 007°45'0 0.0
2018-Jan-05 00:29N 63°07' E 007°45'0 0.0
2018-Jan-04 23:59N 63°07' E 007°45'0 0.0
2018-Jan-04 23:30N 63°07' E 007°45'0 0.0
2018-Jan-04 23:00N 63°07' E 007°45'0 0.0
2018-Jan-04 22:30N 63°07' E 007°45'0 0.0
2018-Jan-04 21:58N 63°07' E 007°45'0 0.0
2018-Jan-04 21:28N 63°07' E 007°45'0 0.0
2018-Jan-04 20:58N 63°07' E 007°45'0 0.0
2018-Jan-04 20:29N 63°07' E 007°45'0 0.0
2018-Jan-04 19:59N 63°07' E 007°45'0 0.0
2018-Jan-04 19:29N 63°07' E 007°45'0 0.0
2018-Jan-04 19:00N 63°07' E 007°45'0 0.0
2018-Jan-04 18:30N 63°07' E 007°45'0 0.0
2018-Jan-04 18:00N 63°07' E 007°45'0 0.0
2018-Jan-04 17:28N 63°07' E 007°45'0 0.0
2018-Jan-04 16:58N 63°07' E 007°45'0 0.0
2018-Jan-04 16:29N 63°07' E 007°45'0 0.0
2018-Jan-04 15:59N 63°07' E 007°45'0 0.0
2018-Jan-04 15:29N 63°07' E 007°45'0 0.0
2018-Jan-04 15:00N 63°07' E 007°45'0 0.0
2018-Jan-04 14:30N 63°07' E 007°45'0 0.0
2018-Jan-04 14:00N 63°07' E 007°45'0 0.0
2018-Jan-04 13:31N 63°07' E 007°45'0 0.0
2018-Jan-04 12:58N 63°07' E 007°45'0 0.0
2018-Jan-04 12:28N 63°07' E 007°45'0 0.0
2018-Jan-04 11:59N 63°07' E 007°45'0 0.0
2018-Jan-04 11:29N 63°07' E 007°45'0 0.0
2018-Jan-04 10:59N 63°07' E 007°45'0 0.0
2018-Jan-04 10:30N 63°07' E 007°45'0 0.0
2018-Jan-04 10:00N 63°07' E 007°45'0 0.0
2018-Jan-04 09:30N 63°07' E 007°45'0 0.0
2018-Jan-04 09:01N 63°07' E 007°45'0 0.0
2018-Jan-04 08:28N 63°07' E 007°45'0 0.0
2018-Jan-04 07:58N 63°07' E 007°45'0 0.0
2018-Jan-04 07:29N 63°07' E 007°45'0 0.0
2018-Jan-04 06:59N 63°07' E 007°45'0 0.0
2018-Jan-04 06:29N 63°07' E 007°45'0 0.0
2018-Jan-04 06:00N 63°07' E 007°45'0 0.0
2018-Jan-04 05:30N 63°07' E 007°45'0 0.0
2018-Jan-04 05:00N 63°07' E 007°45'0 0.0
2018-Jan-04 04:31N 63°07' E 007°45'0 0.0
2018-Jan-04 03:58N 63°07' E 007°45'0 0.0
2018-Jan-04 03:28N 63°07' E 007°45'0 0.0
2018-Jan-04 02:59N 63°07' E 007°45'0 0.0
2018-Jan-04 02:29N 63°07' E 007°45'0 0.0
2018-Jan-04 01:59N 63°07' E 007°45'0 0.0
2018-Jan-04 01:30N 63°07' E 007°45'0 0.0
2018-Jan-04 01:00N 63°07' E 007°45'0 0.0
2018-Jan-04 00:30N 63°07' E 007°45'0 0.0
2018-Jan-03 23:58N 63°07' E 007°45'0 0.0
2018-Jan-03 23:28N 63°07' E 007°45'0 0.0
2018-Jan-03 22:58N 63°07' E 007°45'0 0.0
2018-Jan-03 22:29N 63°07' E 007°45'0 0.0
2018-Jan-03 21:59N 63°07' E 007°45'0 0.0
2018-Jan-03 21:29N 63°07' E 007°45'0 0.0
2018-Jan-03 21:00N 63°07' E 007°45'0 0.0
2018-Jan-03 20:30N 63°07' E 007°45'0 0.0
2018-Jan-03 20:00N 63°07' E 007°45'0 0.0
2018-Jan-03 19:28N 63°07' E 007°45'0 0.0
2018-Jan-03 18:58N 63°07' E 007°45'0 0.0
2018-Jan-03 18:28N 63°07' E 007°45'0 0.0
2018-Jan-03 17:59N 63°07' E 007°45'0 0.0
2018-Jan-03 17:29N 63°07' E 007°45'0 0.0
2018-Jan-03 16:59N 63°07' E 007°45'0 0.0
2018-Jan-03 16:30N 63°07' E 007°45'0 0.0
2018-Jan-03 16:00N 63°07' E 007°45'0 0.0
2018-Jan-03 15:30N 63°07' E 007°45'0 0.0
2018-Jan-03 14:58N 63°07' E 007°45'0 0.0
2018-Jan-03 14:28N 63°07' E 007°45'0 0.0
2018-Jan-03 13:58N 63°07' E 007°45'0 0.0
2018-Jan-03 13:29N 63°07' E 007°45'0 0.0
2018-Jan-03 12:59N 63°07' E 007°45'0 0.0
2018-Jan-03 12:29N 63°07' E 007°45'0 0.0
2018-Jan-03 11:54N 63°07' E 007°45'0 0.0
2018-Jan-03 11:30N 63°07' E 007°45'0 0.0
2018-Jan-03 11:00N 63°07' E 007°45'0 0.0
2018-Jan-03 10:28N 63°07' E 007°45'0 0.0
2018-Jan-03 09:58N 63°07' E 007°45'0 0.0
2018-Jan-03 09:28N 63°07' E 007°45'0 0.0
2018-Jan-03 08:59N 63°07' E 007°45'0 0.0
2018-Jan-03 08:29N 63°07' E 007°45'0 0.0
2018-Jan-03 07:59N 63°07' E 007°45'0 0.0
2018-Jan-03 07:30N 63°07' E 007°45'0 0.0
2018-Jan-03 07:00N 63°07' E 007°45'0 0.0
2018-Jan-03 06:30N 63°07' E 007°45'0 0.0
2018-Jan-03 05:58N 63°07' E 007°45'0 0.0
2018-Jan-03 05:28N 63°07' E 007°45'0 0.0
2018-Jan-03 04:58N 63°07' E 007°45'0 0.0
2018-Jan-03 04:29N 63°07' E 007°45'0 0.0
2018-Jan-03 03:59N 63°07' E 007°45'0 0.0
2018-Jan-03 03:29N 63°07' E 007°45'0 0.0
2018-Jan-03 03:00N 63°07' E 007°45'0 0.0
2018-Jan-03 02:30N 63°07' E 007°45'0 0.0
2018-Jan-03 02:00N 63°07' E 007°45'0 0.0
2018-Jan-03 01:28N 63°07' E 007°45'0 0.0
2018-Jan-03 00:58N 63°07' E 007°45'0 0.0
2018-Jan-03 00:28N 63°07' E 007°45'0 0.0
2018-Jan-02 23:59N 63°07' E 007°45'0 0.0
2018-Jan-02 23:29N 63°07' E 007°45'0 0.0
2018-Jan-02 22:59N 63°07' E 007°45'0 0.0
2018-Jan-02 21:39N 63°07' E 007°45'0 0.0
2018-Jan-02 21:30N 63°07' E 007°45'0 0.0
2018-Jan-02 20:58N 63°07' E 007°45'0 0.0
2018-Jan-02 20:28N 63°07' E 007°45'0 0.0
2018-Jan-02 19:58N 63°07' E 007°45'0 0.0
2018-Jan-02 19:29N 63°07' E 007°45'0 0.0
2018-Jan-02 18:53N 63°07' E 007°45'0 0.0
2018-Jan-02 18:29N 63°07' E 007°45'0 0.0
2018-Jan-02 18:00N 63°07' E 007°45'0 0.0
2018-Jan-02 17:30N 63°07' E 007°45'0 0.0
2018-Jan-02 17:00N 63°07' E 007°45'0 0.0
2018-Jan-02 16:28N 63°07' E 007°45'0 0.0
2018-Jan-02 15:58N 63°07' E 007°45'0 0.0
2018-Jan-02 15:28N 63°07' E 007°45'0 0.0
2018-Jan-02 14:59N 63°07' E 007°45'0 0.0
2018-Jan-02 14:29N 63°07' E 007°45'0 0.0
2018-Jan-02 13:59N 63°07' E 007°45'0 0.0
2018-Jan-02 13:30N 63°07' E 007°45'0 0.0
2018-Jan-02 13:00N 63°07' E 007°45'0 0.0
2018-Jan-02 12:30N 63°07' E 007°45'0 0.0
2018-Jan-02 11:58N 63°07' E 007°45'0 0.0
2018-Jan-02 11:28N 63°07' E 007°45'0 0.1
2018-Jan-02 11:00N 63°07' E 007°46'2 4.5
2018-Jan-02 10:30N 63°07' E 007°41'3 6.8
2018-Jan-02 10:00N 63°05' E 007°34'4 7.6
2018-Jan-02 09:30N 63°03' E 007°27'0 0.3
2018-Jan-02 08:22N 63°03' E 007°26'0 0.0
2018-Jan-02 07:59N 63°03' E 007°26'0 0.0
2018-Jan-02 07:29N 63°03' E 007°26'0 0.0
2018-Jan-02 06:53N 63°03' E 007°26'0 0.0
2018-Jan-02 06:30N 63°03' E 007°26'0 0.0
2018-Jan-02 05:57N 63°03' E 007°26'0 0.0
2018-Jan-02 05:30N 63°03' E 007°26'0 0.0
2018-Jan-02 04:28N 63°03' E 007°26'0 0.0
2018-Jan-02 03:58N 63°03' E 007°26'0 0.0
2018-Jan-02 03:29N 63°03' E 007°26'0 0.0
2018-Jan-02 02:59N 63°03' E 007°26'0 0.0
2018-Jan-02 02:29N 63°03' E 007°26'0 0.0
2018-Jan-02 02:00N 63°03' E 007°26'0 0.0
2018-Jan-02 01:30N 63°03' E 007°26'0 0.0
2018-Jan-02 01:00N 63°03' E 007°26'0 0.0
2018-Jan-02 00:30N 63°03' E 007°26'0 0.0
2018-Jan-01 23:58N 63°03' E 007°26'0 0.0
2018-Jan-01 23:28N 63°03' E 007°26'0 0.0
2018-Jan-01 22:59N 63°03' E 007°26'0 0.0
2018-Jan-01 22:29N 63°03' E 007°26'0 0.0
2018-Jan-01 21:59N 63°03' E 007°26'0 0.0
2018-Jan-01 21:30N 63°03' E 007°26'0 0.0
2018-Jan-01 21:00N 63°03' E 007°26'0 0.0
2018-Jan-01 20:30N 63°03' E 007°26'0 0.0
2018-Jan-01 20:01N 63°03' E 007°26'0 0.0
2018-Jan-01 19:28N 63°03' E 007°26'0 0.0
2018-Jan-01 18:55N 63°03' E 007°26'0 0.0
2018-Jan-01 18:26N 63°03' E 007°26'0 0.0
2018-Jan-01 17:59N 63°03' E 007°26'0 0.0
2018-Jan-01 17:29N 63°03' E 007°26'0 0.0
2018-Jan-01 14:58N 63°03' E 007°26'0 0.0
2018-Jan-01 14:28N 63°03' E 007°26'0 0.0
2018-Jan-01 13:59N 63°03' E 007°26'0 0.0
2018-Jan-01 13:29N 63°03' E 007°26'0 0.0
2018-Jan-01 12:59N 63°03' E 007°26'  
Track history (hours):
 
Tides and Currents Weather Stations Pressure Air Temp Water Temp Dewpoint Dewpoint Depression Visibility Wind Speed Wind Dir Waves Ship Positions

G. Unger Vetlesen

Last reported at 2018-Jan-11 12:58 UTC. Time now 2018-Feb-21 17:28 UTC.
Position N 59°42' E 005°24'.
Warning: this ship's position is 41 days out of date.

Length 23 m; draft 3.2 m.

Type: Pleasure craft. MMSI: 257267500.

Date/timePositionNaut miles runAvg speedWind from/ knotsBaromVisibWave heightAir tempDewpointWater temp
2018-Jan-11 12:58N 59°42' E 005°24'4 8.5
2018-Jan-11 12:30N 59°45' E 005°21'  
2018-Jan-06 03:45N 62°28' E 006°04'2 9.0
2018-Jan-06 03:30N 62°29' E 006°08'4 8.6
2018-Jan-06 03:00N 62°34' E 006°11'41 8.2
2018-Jan-05 22:03N 63°02' E 007°13'1 9.1
2018-Jan-05 21:56N 63°03' E 007°15'4 7.9
2018-Jan-05 21:28N 63°04' E 007°23'4 9.0
2018-Jan-05 20:59N 63°06' E 007°31'4 8.5
2018-Jan-05 20:30N 63°07' E 007°40'3 4.8
2018-Jan-05 19:58N 63°07' E 007°45'0 0.0
2018-Jan-05 19:28N 63°07' E 007°45'0 0.0
2018-Jan-05 18:59N 63°07' E 007°45'0 0.0
2018-Jan-05 18:29N 63°07' E 007°45'0 0.0
2018-Jan-05 17:59N 63°07' E 007°45'0 0.0
2018-Jan-05 17:30N 63°07' E 007°45'0 0.0
2018-Jan-05 17:00N 63°07' E 007°45'0 0.0
2018-Jan-05 16:30N 63°07' E 007°45'0 0.0
2018-Jan-05 15:58N 63°07' E 007°45'0 0.0
2018-Jan-05 15:28N 63°07' E 007°45'0 0.0
2018-Jan-05 14:58N 63°07' E 007°45'0 0.0
2018-Jan-05 14:29N 63°07' E 007°45'0 0.0
2018-Jan-05 13:59N 63°07' E 007°45'0 0.0
2018-Jan-05 13:29N 63°07' E 007°45'0 0.0
2018-Jan-05 13:00N 63°07' E 007°45'0 0.0
2018-Jan-05 12:30N 63°07' E 007°45'0 0.0
2018-Jan-05 12:00N 63°07' E 007°45'0 0.0
2018-Jan-05 11:28N 63°07' E 007°45'0 0.0
2018-Jan-05 10:58N 63°07' E 007°45'0 0.0
2018-Jan-05 10:28N 63°07' E 007°45'0 0.0
2018-Jan-05 09:59N 63°07' E 007°45'0 0.0
2018-Jan-05 09:29N 63°07' E 007°45'0 0.0
2018-Jan-05 08:59N 63°07' E 007°45'0 0.0
2018-Jan-05 08:30N 63°07' E 007°45'0 0.0
2018-Jan-05 08:00N 63°07' E 007°45'0 0.0
2018-Jan-05 07:30N 63°07' E 007°45'0 0.0
2018-Jan-05 06:58N 63°07' E 007°45'0 0.0
2018-Jan-05 06:28N 63°07' E 007°45'0 0.0
2018-Jan-05 05:58N 63°07' E 007°45'0 0.0
2018-Jan-05 05:29N 63°07' E 007°45'0 0.0
2018-Jan-05 04:59N 63°07' E 007°45'0 0.0
2018-Jan-05 04:29N 63°07' E 007°45'0 0.0
2018-Jan-05 04:00N 63°07' E 007°45'0 0.0
2018-Jan-05 03:30N 63°07' E 007°45'0 0.0
2018-Jan-05 03:00N 63°07' E 007°45'0 0.0
2018-Jan-05 02:28N 63°07' E 007°45'0 0.0
2018-Jan-05 01:58N 63°07' E 007°45'0 0.0
2018-Jan-05 01:28N 63°07' E 007°45'0 0.0
2018-Jan-05 00:59N 63°07' E 007°45'0 0.0
2018-Jan-05 00:29N 63°07' E 007°45'0 0.0
2018-Jan-04 23:59N 63°07' E 007°45'0 0.0
2018-Jan-04 23:30N 63°07' E 007°45'0 0.0
2018-Jan-04 23:00N 63°07' E 007°45'0 0.0
2018-Jan-04 22:30N 63°07' E 007°45'0 0.0
2018-Jan-04 21:58N 63°07' E 007°45'0 0.0
2018-Jan-04 21:28N 63°07' E 007°45'0 0.0
2018-Jan-04 20:58N 63°07' E 007°45'0 0.0
2018-Jan-04 20:29N 63°07' E 007°45'0 0.0
2018-Jan-04 19:59N 63°07' E 007°45'0 0.0
2018-Jan-04 19:29N 63°07' E 007°45'0 0.0
2018-Jan-04 19:00N 63°07' E 007°45'0 0.0
2018-Jan-04 18:30N 63°07' E 007°45'0 0.0
2018-Jan-04 18:00N 63°07' E 007°45'0 0.0
2018-Jan-04 17:28N 63°07' E 007°45'0 0.0
2018-Jan-04 16:58N 63°07' E 007°45'0 0.0
2018-Jan-04 16:29N 63°07' E 007°45'0 0.0
2018-Jan-04 15:59N 63°07' E 007°45'0 0.0
2018-Jan-04 15:29N 63°07' E 007°45'0 0.0
2018-Jan-04 15:00N 63°07' E 007°45'0 0.0
2018-Jan-04 14:30N 63°07' E 007°45'0 0.0
2018-Jan-04 14:00N 63°07' E 007°45'0 0.0
2018-Jan-04 13:31N 63°07' E 007°45'0 0.0
2018-Jan-04 12:58N 63°07' E 007°45'0 0.0
2018-Jan-04 12:28N 63°07' E 007°45'0 0.0
2018-Jan-04 11:59N 63°07' E 007°45'0 0.0
2018-Jan-04 11:29N 63°07' E 007°45'0 0.0
2018-Jan-04 10:59N 63°07' E 007°45'0 0.0
2018-Jan-04 10:30N 63°07' E 007°45'0 0.0
2018-Jan-04 10:00N 63°07' E 007°45'0 0.0
2018-Jan-04 09:30N 63°07' E 007°45'0 0.0
2018-Jan-04 09:01N 63°07' E 007°45'0 0.0
2018-Jan-04 08:28N 63°07' E 007°45'0 0.0
2018-Jan-04 07:58N 63°07' E 007°45'0 0.0
2018-Jan-04 07:29N 63°07' E 007°45'0 0.0
2018-Jan-04 06:59N 63°07' E 007°45'0 0.0
2018-Jan-04 06:29N 63°07' E 007°45'0 0.0
2018-Jan-04 06:00N 63°07' E 007°45'0 0.0
2018-Jan-04 05:30N 63°07' E 007°45'0 0.0
2018-Jan-04 05:00N 63°07' E 007°45'0 0.0
2018-Jan-04 04:31N 63°07' E 007°45'0 0.0
2018-Jan-04 03:58N 63°07' E 007°45'0 0.0
2018-Jan-04 03:28N 63°07' E 007°45'0 0.0
2018-Jan-04 02:59N 63°07' E 007°45'0 0.0
2018-Jan-04 02:29N 63°07' E 007°45'0 0.0
2018-Jan-04 01:59N 63°07' E 007°45'0 0.0
2018-Jan-04 01:30N 63°07' E 007°45'0 0.0
2018-Jan-04 01:00N 63°07' E 007°45'0 0.0
2018-Jan-04 00:30N 63°07' E 007°45'0 0.0
2018-Jan-03 23:58N 63°07' E 007°45'0 0.0
2018-Jan-03 23:28N 63°07' E 007°45'0 0.0
2018-Jan-03 22:58N 63°07' E 007°45'0 0.0
2018-Jan-03 22:29N 63°07' E 007°45'0 0.0
2018-Jan-03 21:59N 63°07' E 007°45'0 0.0
2018-Jan-03 21:29N 63°07' E 007°45'0 0.0
2018-Jan-03 21:00N 63°07' E 007°45'0 0.0
2018-Jan-03 20:30N 63°07' E 007°45'0 0.0
2018-Jan-03 20:00N 63°07' E 007°45'0 0.0
2018-Jan-03 19:28N 63°07' E 007°45'0 0.0
2018-Jan-03 18:58N 63°07' E 007°45'0 0.0
2018-Jan-03 18:28N 63°07' E 007°45'0 0.0
2018-Jan-03 17:59N 63°07' E 007°45'0 0.0
2018-Jan-03 17:29N 63°07' E 007°45'0 0.0
2018-Jan-03 16:59N 63°07' E 007°45'0 0.0
2018-Jan-03 16:30N 63°07' E 007°45'0 0.0
2018-Jan-03 16:00N 63°07' E 007°45'0 0.0
2018-Jan-03 15:30N 63°07' E 007°45'0 0.0
2018-Jan-03 14:58N 63°07' E 007°45'0 0.0
2018-Jan-03 14:28N 63°07' E 007°45'0 0.0
2018-Jan-03 13:58N 63°07' E 007°45'0 0.0
2018-Jan-03 13:29N 63°07' E 007°45'0 0.0
2018-Jan-03 12:59N 63°07' E 007°45'0 0.0
2018-Jan-03 12:29N 63°07' E 007°45'0 0.0
2018-Jan-03 11:54N 63°07' E 007°45'0 0.0
2018-Jan-03 11:30N 63°07' E 007°45'0 0.0
2018-Jan-03 11:00N 63°07' E 007°45'0 0.0
2018-Jan-03 10:28N 63°07' E 007°45'0 0.0
2018-Jan-03 09:58N 63°07' E 007°45'0 0.0
2018-Jan-03 09:28N 63°07' E 007°45'0 0.0
2018-Jan-03 08:59N 63°07' E 007°45'0 0.0
2018-Jan-03 08:29N 63°07' E 007°45'0 0.0
2018-Jan-03 07:59N 63°07' E 007°45'0 0.0
2018-Jan-03 07:30N 63°07' E 007°45'0 0.0
2018-Jan-03 07:00N 63°07' E 007°45'0 0.0
2018-Jan-03 06:30N 63°07' E 007°45'0 0.0
2018-Jan-03 05:58N 63°07' E 007°45'0 0.0
2018-Jan-03 05:28N 63°07' E 007°45'0 0.0
2018-Jan-03 04:58N 63°07' E 007°45'0 0.0
2018-Jan-03 04:29N 63°07' E 007°45'0 0.0
2018-Jan-03 03:59N 63°07' E 007°45'0 0.0
2018-Jan-03 03:29N 63°07' E 007°45'0 0.0
2018-Jan-03 03:00N 63°07' E 007°45'0 0.0
2018-Jan-03 02:30N 63°07' E 007°45'0 0.0
2018-Jan-03 02:00N 63°07' E 007°45'0 0.0
2018-Jan-03 01:28N 63°07' E 007°45'0 0.0
2018-Jan-03 00:58N 63°07' E 007°45'0 0.0
2018-Jan-03 00:28N 63°07' E 007°45'0 0.0
2018-Jan-02 23:59N 63°07' E 007°45'0 0.0
2018-Jan-02 23:29N 63°07' E 007°45'0 0.0
2018-Jan-02 22:59N 63°07' E 007°45'0 0.0
2018-Jan-02 21:39N 63°07' E 007°45'0 0.0
2018-Jan-02 21:30N 63°07' E 007°45'0 0.0
2018-Jan-02 20:58N 63°07' E 007°45'0 0.0
2018-Jan-02 20:28N 63°07' E 007°45'0 0.0
2018-Jan-02 19:58N 63°07' E 007°45'0 0.0
2018-Jan-02 19:29N 63°07' E 007°45'0 0.0
2018-Jan-02 18:53N 63°07' E 007°45'0 0.0
2018-Jan-02 18:29N 63°07' E 007°45'0 0.0
2018-Jan-02 18:00N 63°07' E 007°45'0 0.0
2018-Jan-02 17:30N 63°07' E 007°45'0 0.0
2018-Jan-02 17:00N 63°07' E 007°45'0 0.0
2018-Jan-02 16:28N 63°07' E 007°45'0 0.0
2018-Jan-02 15:58N 63°07' E 007°45'0 0.0
2018-Jan-02 15:28N 63°07' E 007°45'0 0.0
2018-Jan-02 14:59N 63°07' E 007°45'0 0.0
2018-Jan-02 14:29N 63°07' E 007°45'0 0.0
2018-Jan-02 13:59N 63°07' E 007°45'0 0.0
2018-Jan-02 13:30N 63°07' E 007°45'0 0.0
2018-Jan-02 13:00N 63°07' E 007°45'0 0.0
2018-Jan-02 12:30N 63°07' E 007°45'0 0.0
2018-Jan-02 11:58N 63°07' E 007°45'0 0.0
2018-Jan-02 11:28N 63°07' E 007°45'0 0.1
2018-Jan-02 11:00N 63°07' E 007°46'2 4.5
2018-Jan-02 10:30N 63°07' E 007°41'3 6.8
2018-Jan-02 10:00N 63°05' E 007°34'4 7.6
2018-Jan-02 09:30N 63°03' E 007°27'0 0.3
2018-Jan-02 08:22N 63°03' E 007°26'0 0.0
2018-Jan-02 07:59N 63°03' E 007°26'0 0.0
2018-Jan-02 07:29N 63°03' E 007°26'0 0.0
2018-Jan-02 06:53N 63°03' E 007°26'0 0.0
2018-Jan-02 06:30N 63°03' E 007°26'0 0.0
2018-Jan-02 05:57N 63°03' E 007°26'0 0.0
2018-Jan-02 05:30N 63°03' E 007°26'0 0.0
2018-Jan-02 04:28N 63°03' E 007°26'0 0.0
2018-Jan-02 03:58N 63°03' E 007°26'0 0.0
2018-Jan-02 03:29N 63°03' E 007°26'0 0.0
2018-Jan-02 02:59N 63°03' E 007°26'0 0.0
2018-Jan-02 02:29N 63°03' E 007°26'0 0.0
2018-Jan-02 02:00N 63°03' E 007°26'0 0.0
2018-Jan-02 01:30N 63°03' E 007°26'0 0.0
2018-Jan-02 01:00N 63°03' E 007°26'0 0.0
2018-Jan-02 00:30N 63°03' E 007°26'0 0.0
2018-Jan-01 23:58N 63°03' E 007°26'0 0.0
2018-Jan-01 23:28N 63°03' E 007°26'0 0.0
2018-Jan-01 22:59N 63°03' E 007°26'0 0.0
2018-Jan-01 22:29N 63°03' E 007°26'0 0.0
2018-Jan-01 21:59N 63°03' E 007°26'0 0.0
2018-Jan-01 21:30N 63°03' E 007°26'0 0.0
2018-Jan-01 21:00N 63°03' E 007°26'0 0.0
2018-Jan-01 20:30N 63°03' E 007°26'0 0.0
2018-Jan-01 20:01N 63°03' E 007°26'0 0.0
2018-Jan-01 19:28N 63°03' E 007°26'0 0.0
2018-Jan-01 18:55N 63°03' E 007°26'0 0.0
2018-Jan-01 18:26N 63°03' E 007°26'0 0.0
2018-Jan-01 17:59N 63°03' E 007°26'0 0.0
2018-Jan-01 17:29N 63°03' E 007°26'0 0.0
2018-Jan-01 14:58N 63°03' E 007°26'0 0.0
2018-Jan-01 14:28N 63°03' E 007°26'0 0.0
2018-Jan-01 13:59N 63°03' E 007°26'0 0.0
2018-Jan-01 13:29N 63°03' E 007°26'0 0.0
2018-Jan-01 12:59N 63°03' E 007°26'  

Dump ship's entire track history